sensor_id;sensor_type;location;lat;lon;timestamp;temperature;humidity
14192;DHT22;7177;48.572;7.838;2023-11-18T00:02:23;6.90;99.90
14192;DHT22;7177;48.572;7.838;2023-11-18T00:04:50;6.80;99.90
14192;DHT22;7177;48.572;7.838;2023-11-18T00:09:42;6.80;99.90
14192;DHT22;7177;48.572;7.838;2023-11-18T00:12:11;6.80;99.90
14192;DHT22;7177;48.572;7.838;2023-11-18T00:14:37;6.80;99.90
14192;DHT22;7177;48.572;7.838;2023-11-18T00:17:03;6.80;99.90
14192;DHT22;7177;48.572;7.838;2023-11-18T00:19:29;6.80;99.90
14192;DHT22;7177;48.572;7.838;2023-11-18T00:21:55;6.80;99.90
14192;DHT22;7177;48.572;7.838;2023-11-18T00:24:20;6.80;99.90
14192;DHT22;7177;48.572;7.838;2023-11-18T00:26:46;6.70;99.90
14192;DHT22;7177;48.572;7.838;2023-11-18T00:29:12;6.70;99.90
14192;DHT22;7177;48.572;7.838;2023-11-18T00:31:38;6.70;99.90
14192;DHT22;7177;48.572;7.838;2023-11-18T00:34:04;6.70;99.90
14192;DHT22;7177;48.572;7.838;2023-11-18T00:36:29;6.70;99.90
14192;DHT22;7177;48.572;7.838;2023-11-18T00:38:55;6.70;99.90
14192;DHT22;7177;48.572;7.838;2023-11-18T00:41:20;6.70;99.90
14192;DHT22;7177;48.572;7.838;2023-11-18T00:43:46;6.70;99.90
14192;DHT22;7177;48.572;7.838;2023-11-18T00:46:12;6.70;99.90
14192;DHT22;7177;48.572;7.838;2023-11-18T00:48:38;6.70;99.90
14192;DHT22;7177;48.572;7.838;2023-11-18T00:51:05;6.60;99.90
14192;DHT22;7177;48.572;7.838;2023-11-18T00:53:31;6.60;99.90
14192;DHT22;7177;48.572;7.838;2023-11-18T00:55:57;6.60;99.90
14192;DHT22;7177;48.572;7.838;2023-11-18T00:58:22;6.60;99.90
14192;DHT22;7177;48.572;7.838;2023-11-18T01:00:48;6.60;99.90
14192;DHT22;7177;48.572;7.838;2023-11-18T01:03:13;6.60;99.90
14192;DHT22;7177;48.572;7.838;2023-11-18T01:05:39;6.60;99.90
14192;DHT22;7177;48.572;7.838;2023-11-18T01:08:04;6.70;99.90
14192;DHT22;7177;48.572;7.838;2023-11-18T01:10:30;6.70;99.90
14192;DHT22;7177;48.572;7.838;2023-11-18T01:12:56;6.70;99.90
14192;DHT22;7177;48.572;7.838;2023-11-18T01:15:23;6.70;99.90
14192;DHT22;7177;48.572;7.838;2023-11-18T01:17:49;6.70;99.90
14192;DHT22;7177;48.572;7.838;2023-11-18T01:20:14;6.70;99.90
14192;DHT22;7177;48.572;7.838;2023-11-18T01:22:46;6.70;99.90
14192;DHT22;7177;48.572;7.838;2023-11-18T01:25:12;6.50;99.90
14192;DHT22;7177;48.572;7.838;2023-11-18T01:27:38;6.60;99.90
14192;DHT22;7177;48.572;7.838;2023-11-18T01:32:31;6.50;99.90
14192;DHT22;7177;48.572;7.838;2023-11-18T01:34:57;6.50;99.90
14192;DHT22;7177;48.572;7.838;2023-11-18T01:37:22;6.40;99.90
14192;DHT22;7177;48.572;7.838;2023-11-18T01:39:49;6.30;99.90
14192;DHT22;7177;48.572;7.838;2023-11-18T01:42:15;6.30;99.90
14192;DHT22;7177;48.572;7.838;2023-11-18T01:44:41;6.20;99.90
14192;DHT22;7177;48.572;7.838;2023-11-18T01:47:07;6.20;99.90
14192;DHT22;7177;48.572;7.838;2023-11-18T01:49:37;6.20;99.90
14192;DHT22;7177;48.572;7.838;2023-11-18T01:52:05;6.30;99.90
14192;DHT22;7177;48.572;7.838;2023-11-18T01:54:33;6.20;99.90
14192;DHT22;7177;48.572;7.838;2023-11-18T01:56:59;6.20;99.90
14192;DHT22;7177;48.572;7.838;2023-11-18T01:59:28;6.20;99.90
14192;DHT22;7177;48.572;7.838;2023-11-18T02:01:55;6.10;99.90
14192;DHT22;7177;48.572;7.838;2023-11-18T02:04:25;6.10;99.90
14192;DHT22;7177;48.572;7.838;2023-11-18T02:06:51;6.10;99.90
14192;DHT22;7177;48.572;7.838;2023-11-18T02:09:18;6.10;99.90
14192;DHT22;7177;48.572;7.838;2023-11-18T02:12:13;6.00;99.90
14192;DHT22;7177;48.572;7.838;2023-11-18T02:14:39;5.90;99.90
14192;DHT22;7177;48.572;7.838;2023-11-18T02:17:05;5.90;99.90
14192;DHT22;7177;48.572;7.838;2023-11-18T02:19:31;5.90;99.90
14192;DHT22;7177;48.572;7.838;2023-11-18T02:22:00;5.90;99.90
14192;DHT22;7177;48.572;7.838;2023-11-18T02:24:27;5.90;99.90
14192;DHT22;7177;48.572;7.838;2023-11-18T02:26:54;5.90;99.90
14192;DHT22;7177;48.572;7.838;2023-11-18T02:29:22;5.80;99.90
14192;DHT22;7177;48.572;7.838;2023-11-18T02:31:49;5.80;99.90
14192;DHT22;7177;48.572;7.838;2023-11-18T02:34:22;5.80;99.90
14192;DHT22;7177;48.572;7.838;2023-11-18T02:36:51;5.80;99.90
14192;DHT22;7177;48.572;7.838;2023-11-18T02:39:22;5.70;99.90
14192;DHT22;7177;48.572;7.838;2023-11-18T02:41:52;5.70;99.90
14192;DHT22;7177;48.572;7.838;2023-11-18T02:44:22;5.60;99.90
14192;DHT22;7177;48.572;7.838;2023-11-18T02:46:48;5.60;99.90
14192;DHT22;7177;48.572;7.838;2023-11-18T02:49:14;5.60;99.90
14192;DHT22;7177;48.572;7.838;2023-11-18T02:51:40;5.50;99.90
14192;DHT22;7177;48.572;7.838;2023-11-18T02:54:06;5.50;99.90
14192;DHT22;7177;48.572;7.838;2023-11-18T02:56:32;5.50;99.90
14192;DHT22;7177;48.572;7.838;2023-11-18T02:58:57;5.50;99.90
14192;DHT22;7177;48.572;7.838;2023-11-18T03:01:23;5.40;99.90
14192;DHT22;7177;48.572;7.838;2023-11-18T03:03:50;5.40;99.90
14192;DHT22;7177;48.572;7.838;2023-11-18T03:06:16;5.40;99.90
14192;DHT22;7177;48.572;7.838;2023-11-18T03:08:42;5.30;99.90
14192;DHT22;7177;48.572;7.838;2023-11-18T03:11:07;5.30;99.90
14192;DHT22;7177;48.572;7.838;2023-11-18T03:13:35;5.30;99.90
14192;DHT22;7177;48.572;7.838;2023-11-18T03:16:00;5.30;99.90
14192;DHT22;7177;48.572;7.838;2023-11-18T03:18:26;5.30;99.90
14192;DHT22;7177;48.572;7.838;2023-11-18T03:20:51;5.30;99.90
14192;DHT22;7177;48.572;7.838;2023-11-18T03:23:17;5.30;99.90
14192;DHT22;7177;48.572;7.838;2023-11-18T03:25:44;5.20;99.90
14192;DHT22;7177;48.572;7.838;2023-11-18T03:28:10;5.20;99.90
14192;DHT22;7177;48.572;7.838;2023-11-18T03:30:35;5.20;99.90
14192;DHT22;7177;48.572;7.838;2023-11-18T03:33:03;5.20;99.90
14192;DHT22;7177;48.572;7.838;2023-11-18T03:35:29;5.20;99.90
14192;DHT22;7177;48.572;7.838;2023-11-18T03:37:55;5.20;99.90
14192;DHT22;7177;48.572;7.838;2023-11-18T03:40:20;5.20;99.90
14192;DHT22;7177;48.572;7.838;2023-11-18T03:42:46;5.20;99.90
14192;DHT22;7177;48.572;7.838;2023-11-18T03:45:12;5.20;99.90
14192;DHT22;7177;48.572;7.838;2023-11-18T03:47:40;5.20;99.90
14192;DHT22;7177;48.572;7.838;2023-11-18T03:50:06;5.10;99.90
14192;DHT22;7177;48.572;7.838;2023-11-18T03:52:35;5.10;99.90
14192;DHT22;7177;48.572;7.838;2023-11-18T03:55:03;5.10;99.90
14192;DHT22;7177;48.572;7.838;2023-11-18T03:57:28;5.10;99.90
14192;DHT22;7177;48.572;7.838;2023-11-18T03:59:54;5.00;99.90
14192;DHT22;7177;48.572;7.838;2023-11-18T04:02:20;5.00;99.90
14192;DHT22;7177;48.572;7.838;2023-11-18T04:04:45;4.90;99.90
14192;DHT22;7177;48.572;7.838;2023-11-18T04:07:11;4.90;99.90
14192;DHT22;7177;48.572;7.838;2023-11-18T04:09:36;4.80;99.90
14192;DHT22;7177;48.572;7.838;2023-11-18T04:12:02;4.80;99.90
14192;DHT22;7177;48.572;7.838;2023-11-18T04:14:28;4.80;99.90
14192;DHT22;7177;48.572;7.838;2023-11-18T04:16:54;4.70;99.90
14192;DHT22;7177;48.572;7.838;2023-11-18T04:19:20;4.80;99.90
14192;DHT22;7177;48.572;7.838;2023-11-18T04:21:47;4.80;99.90
14192;DHT22;7177;48.572;7.838;2023-11-18T04:24:15;4.80;99.90
14192;DHT22;7177;48.572;7.838;2023-11-18T04:31:33;4.80;99.90
14192;DHT22;7177;48.572;7.838;2023-11-18T04:33:59;4.80;99.90
14192;DHT22;7177;48.572;7.838;2023-11-18T04:36:25;4.70;99.90
14192;DHT22;7177;48.572;7.838;2023-11-18T04:38:52;4.70;99.90
14192;DHT22;7177;48.572;7.838;2023-11-18T04:41:17;4.80;99.90
14192;DHT22;7177;48.572;7.838;2023-11-18T04:43:43;4.80;99.90
14192;DHT22;7177;48.572;7.838;2023-11-18T04:46:08;4.70;99.90
14192;DHT22;7177;48.572;7.838;2023-11-18T04:48:34;4.70;99.90
14192;DHT22;7177;48.572;7.838;2023-11-18T04:51:00;4.70;99.90
14192;DHT22;7177;48.572;7.838;2023-11-18T04:53:26;4.70;99.90
14192;DHT22;7177;48.572;7.838;2023-11-18T04:55:51;4.70;99.90
14192;DHT22;7177;48.572;7.838;2023-11-18T04:58:18;4.70;99.90
14192;DHT22;7177;48.572;7.838;2023-11-18T05:00:44;4.70;99.90
14192;DHT22;7177;48.572;7.838;2023-11-18T05:03:10;4.70;99.90
14192;DHT22;7177;48.572;7.838;2023-11-18T05:05:41;4.70;99.90
14192;DHT22;7177;48.572;7.838;2023-11-18T05:08:07;4.70;99.90
14192;DHT22;7177;48.572;7.838;2023-11-18T05:10:34;4.60;99.90
14192;DHT22;7177;48.572;7.838;2023-11-18T05:13:00;4.60;99.90
14192;DHT22;7177;48.572;7.838;2023-11-18T05:15:26;4.60;99.90
14192;DHT22;7177;48.572;7.838;2023-11-18T05:17:52;4.60;99.90
14192;DHT22;7177;48.572;7.838;2023-11-18T05:20:19;4.60;99.90
14192;DHT22;7177;48.572;7.838;2023-11-18T05:22:45;4.60;99.90
14192;DHT22;7177;48.572;7.838;2023-11-18T05:25:11;4.60;99.90
14192;DHT22;7177;48.572;7.838;2023-11-18T05:27:37;4.60;99.90
14192;DHT22;7177;48.572;7.838;2023-11-18T05:30:06;4.50;99.90
14192;DHT22;7177;48.572;7.838;2023-11-18T05:32:31;4.50;99.90
14192;DHT22;7177;48.572;7.838;2023-11-18T05:34:58;4.50;99.90
14192;DHT22;7177;48.572;7.838;2023-11-18T05:37:24;4.50;99.90
14192;DHT22;7177;48.572;7.838;2023-11-18T05:39:50;4.50;99.90
14192;DHT22;7177;48.572;7.838;2023-11-18T05:42:25;4.40;99.90
14192;DHT22;7177;48.572;7.838;2023-11-18T05:44:50;4.40;99.90
14192;DHT22;7177;48.572;7.838;2023-11-18T05:47:23;4.40;99.90
14192;DHT22;7177;48.572;7.838;2023-11-18T05:49:48;4.40;99.90
14192;DHT22;7177;48.572;7.838;2023-11-18T05:52:14;4.40;99.90
14192;DHT22;7177;48.572;7.838;2023-11-18T05:54:39;4.40;99.90
14192;DHT22;7177;48.572;7.838;2023-11-18T05:57:05;4.40;99.90
14192;DHT22;7177;48.572;7.838;2023-11-18T05:59:31;4.40;99.90
14192;DHT22;7177;48.572;7.838;2023-11-18T06:01:56;4.30;99.90
14192;DHT22;7177;48.572;7.838;2023-11-18T06:04:22;4.40;99.90
14192;DHT22;7177;48.572;7.838;2023-11-18T06:06:48;4.40;99.90
14192;DHT22;7177;48.572;7.838;2023-11-18T06:09:13;4.40;99.90
14192;DHT22;7177;48.572;7.838;2023-11-18T06:11:46;4.40;99.90
14192;DHT22;7177;48.572;7.838;2023-11-18T06:14:12;4.40;99.90
14192;DHT22;7177;48.572;7.838;2023-11-18T06:16:37;4.40;99.90
14192;DHT22;7177;48.572;7.838;2023-11-18T06:19:05;4.40;99.90
14192;DHT22;7177;48.572;7.838;2023-11-18T06:21:30;4.40;99.90
14192;DHT22;7177;48.572;7.838;2023-11-18T06:24:01;4.40;99.90
14192;DHT22;7177;48.572;7.838;2023-11-18T06:26:27;4.50;99.90
14192;DHT22;7177;48.572;7.838;2023-11-18T06:28:54;4.40;99.90
14192;DHT22;7177;48.572;7.838;2023-11-18T06:31:20;4.40;99.90
14192;DHT22;7177;48.572;7.838;2023-11-18T06:33:46;4.30;99.90
14192;DHT22;7177;48.572;7.838;2023-11-18T06:38:45;4.40;99.90
14192;DHT22;7177;48.572;7.838;2023-11-18T06:41:11;4.40;99.90
14192;DHT22;7177;48.572;7.838;2023-11-18T06:43:39;4.40;99.90
14192;DHT22;7177;48.572;7.838;2023-11-18T06:46:43;4.40;99.90
14192;DHT22;7177;48.572;7.838;2023-11-18T06:49:10;5.00;99.90
14192;DHT22;7177;48.572;7.838;2023-11-18T06:51:41;5.50;99.90
14192;DHT22;7177;48.572;7.838;2023-11-18T06:54:07;5.70;99.90
14192;DHT22;7177;48.572;7.838;2023-11-18T06:56:43;5.80;99.90
14192;DHT22;7177;48.572;7.838;2023-11-18T06:59:11;5.80;99.90
14192;DHT22;7177;48.572;7.838;2023-11-18T07:01:38;5.70;99.90
14192;DHT22;7177;48.572;7.838;2023-11-18T07:04:06;5.80;99.90
14192;DHT22;7177;48.572;7.838;2023-11-18T07:06:34;5.70;99.90
14192;DHT22;7177;48.572;7.838;2023-11-18T07:09:04;5.50;99.90
14192;DHT22;7177;48.572;7.838;2023-11-18T07:11:34;5.40;99.90
14192;DHT22;7177;48.572;7.838;2023-11-18T07:14:00;5.30;99.90
14192;DHT22;7177;48.572;7.838;2023-11-18T07:16:26;5.20;99.90
14192;DHT22;7177;48.572;7.838;2023-11-18T07:18:52;5.10;99.90
14192;DHT22;7177;48.572;7.838;2023-11-18T07:21:18;5.00;99.90
14192;DHT22;7177;48.572;7.838;2023-11-18T07:23:44;5.00;99.90
14192;DHT22;7177;48.572;7.838;2023-11-18T07:26:09;5.00;99.90
14192;DHT22;7177;48.572;7.838;2023-11-18T07:28:35;5.00;99.90
14192;DHT22;7177;48.572;7.838;2023-11-18T07:31:01;4.90;99.90
14192;DHT22;7177;48.572;7.838;2023-11-18T07:33:30;4.90;99.90
14192;DHT22;7177;48.572;7.838;2023-11-18T07:35:57;4.90;99.90
14192;DHT22;7177;48.572;7.838;2023-11-18T07:38:23;5.00;99.90
14192;DHT22;7177;48.572;7.838;2023-11-18T07:40:48;4.90;99.90
14192;DHT22;7177;48.572;7.838;2023-11-18T07:43:17;4.90;99.90
14192;DHT22;7177;48.572;7.838;2023-11-18T07:45:46;5.00;99.90
14192;DHT22;7177;48.572;7.838;2023-11-18T07:48:14;5.30;99.90
14192;DHT22;7177;48.572;7.838;2023-11-18T07:50:43;5.50;99.90
14192;DHT22;7177;48.572;7.838;2023-11-18T07:53:12;5.50;99.90
14192;DHT22;7177;48.572;7.838;2023-11-18T07:55:38;5.40;99.90
14192;DHT22;7177;48.572;7.838;2023-11-18T07:58:08;5.40;99.90
14192;DHT22;7177;48.572;7.838;2023-11-18T08:00:42;5.40;99.90
14192;DHT22;7177;48.572;7.838;2023-11-18T08:03:10;5.60;99.90
14192;DHT22;7177;48.572;7.838;2023-11-18T08:05:40;5.60;99.90
14192;DHT22;7177;48.572;7.838;2023-11-18T08:08:07;5.50;99.90
14192;DHT22;7177;48.572;7.838;2023-11-18T08:10:34;5.50;99.90
14192;DHT22;7177;48.572;7.838;2023-11-18T08:13:06;5.60;99.90
14192;DHT22;7177;48.572;7.838;2023-11-18T08:15:33;5.60;99.90
14192;DHT22;7177;48.572;7.838;2023-11-18T08:17:59;5.60;99.90
14192;DHT22;7177;48.572;7.838;2023-11-18T08:20:25;5.60;99.90
14192;DHT22;7177;48.572;7.838;2023-11-18T08:22:51;5.60;99.90
14192;DHT22;7177;48.572;7.838;2023-11-18T08:25:17;5.70;99.90
14192;DHT22;7177;48.572;7.838;2023-11-18T08:27:43;5.70;99.90
14192;DHT22;7177;48.572;7.838;2023-11-18T08:30:11;5.70;99.90
14192;DHT22;7177;48.572;7.838;2023-11-18T08:32:38;5.90;99.90
14192;DHT22;7177;48.572;7.838;2023-11-18T08:35:07;5.90;99.90
14192;DHT22;7177;48.572;7.838;2023-11-18T08:37:33;6.00;99.90
14192;DHT22;7177;48.572;7.838;2023-11-18T08:40:04;6.10;99.90
14192;DHT22;7177;48.572;7.838;2023-11-18T08:42:53;6.10;99.90
14192;DHT22;7177;48.572;7.838;2023-11-18T08:45:26;6.20;99.90
14192;DHT22;7177;48.572;7.838;2023-11-18T08:47:59;6.20;99.90
14192;DHT22;7177;48.572;7.838;2023-11-18T08:50:29;6.40;99.90
14192;DHT22;7177;48.572;7.838;2023-11-18T08:52:56;6.40;99.90
14192;DHT22;7177;48.572;7.838;2023-11-18T08:55:32;6.50;99.90
14192;DHT22;7177;48.572;7.838;2023-11-18T08:58:16;6.50;99.90
14192;DHT22;7177;48.572;7.838;2023-11-18T09:03:28;6.80;99.90
14192;DHT22;7177;48.572;7.838;2023-11-18T09:05:55;6.90;99.90
14192;DHT22;7177;48.572;7.838;2023-11-18T09:08:25;7.00;99.90
14192;DHT22;7177;48.572;7.838;2023-11-18T09:10:53;7.10;99.90
14192;DHT22;7177;48.572;7.838;2023-11-18T09:13:20;7.20;99.90
14192;DHT22;7177;48.572;7.838;2023-11-18T09:15:47;7.30;99.90
14192;DHT22;7177;48.572;7.838;2023-11-18T09:18:13;7.30;99.90
14192;DHT22;7177;48.572;7.838;2023-11-18T09:20:38;7.30;99.90
14192;DHT22;7177;48.572;7.838;2023-11-18T09:23:05;7.30;99.90
14192;DHT22;7177;48.572;7.838;2023-11-18T09:25:32;7.30;99.90
14192;DHT22;7177;48.572;7.838;2023-11-18T09:27:58;7.40;99.90
14192;DHT22;7177;48.572;7.838;2023-11-18T09:30:24;7.40;99.90
14192;DHT22;7177;48.572;7.838;2023-11-18T09:32:50;7.40;99.90
14192;DHT22;7177;48.572;7.838;2023-11-18T09:35:17;7.30;99.90
14192;DHT22;7177;48.572;7.838;2023-11-18T09:37:45;7.30;99.90
14192;DHT22;7177;48.572;7.838;2023-11-18T09:40:14;7.20;99.90
14192;DHT22;7177;48.572;7.838;2023-11-18T09:42:40;7.20;99.90
14192;DHT22;7177;48.572;7.838;2023-11-18T09:45:09;7.20;99.90
14192;DHT22;7177;48.572;7.838;2023-11-18T09:47:45;7.30;99.90
14192;DHT22;7177;48.572;7.838;2023-11-18T09:50:17;7.30;99.90
14192;DHT22;7177;48.572;7.838;2023-11-18T09:52:48;7.30;99.90
14192;DHT22;7177;48.572;7.838;2023-11-18T09:55:32;7.30;99.90
14192;DHT22;7177;48.572;7.838;2023-11-18T09:58:04;7.40;99.90
14192;DHT22;7177;48.572;7.838;2023-11-18T10:00:38;7.40;99.90
14192;DHT22;7177;48.572;7.838;2023-11-18T10:03:07;7.40;99.90
14192;DHT22;7177;48.572;7.838;2023-11-18T10:05:41;7.30;99.90
14192;DHT22;7177;48.572;7.838;2023-11-18T10:08:07;7.30;99.90
14192;DHT22;7177;48.572;7.838;2023-11-18T10:10:33;7.40;99.90
14192;DHT22;7177;48.572;7.838;2023-11-18T10:13:03;7.40;99.90
14192;DHT22;7177;48.572;7.838;2023-11-18T10:15:34;7.40;99.90
14192;DHT22;7177;48.572;7.838;2023-11-18T10:18:00;7.40;99.90
14192;DHT22;7177;48.572;7.838;2023-11-18T10:23:08;7.50;99.90
14192;DHT22;7177;48.572;7.838;2023-11-18T10:25:37;7.50;99.90
14192;DHT22;7177;48.572;7.838;2023-11-18T10:28:07;7.60;99.90
14192;DHT22;7177;48.572;7.838;2023-11-18T10:30:44;7.70;99.90
14192;DHT22;7177;48.572;7.838;2023-11-18T10:33:14;7.80;99.90
14192;DHT22;7177;48.572;7.838;2023-11-18T10:35:49;7.80;99.90
14192;DHT22;7177;48.572;7.838;2023-11-18T10:40:44;7.80;99.90
14192;DHT22;7177;48.572;7.838;2023-11-18T10:43:10;7.70;99.90
14192;DHT22;7177;48.572;7.838;2023-11-18T10:45:36;7.70;99.90
14192;DHT22;7177;48.572;7.838;2023-11-18T10:48:06;7.80;99.90
14192;DHT22;7177;48.572;7.838;2023-11-18T10:50:32;7.70;99.90
14192;DHT22;7177;48.572;7.838;2023-11-18T10:53:01;7.70;99.90
14192;DHT22;7177;48.572;7.838;2023-11-18T10:55:36;7.80;99.90
14192;DHT22;7177;48.572;7.838;2023-11-18T10:58:02;7.80;99.90
14192;DHT22;7177;48.572;7.838;2023-11-18T11:00:48;7.80;99.90
14192;DHT22;7177;48.572;7.838;2023-11-18T11:03:15;7.70;99.90
14192;DHT22;7177;48.572;7.838;2023-11-18T11:05:40;7.70;99.90
14192;DHT22;7177;48.572;7.838;2023-11-18T11:08:08;7.70;99.90
14192;DHT22;7177;48.572;7.838;2023-11-18T11:10:39;7.70;99.90
14192;DHT22;7177;48.572;7.838;2023-11-18T11:13:07;7.60;99.90
14192;DHT22;7177;48.572;7.838;2023-11-18T11:15:40;7.60;99.90
14192;DHT22;7177;48.572;7.838;2023-11-18T11:18:08;7.60;99.90
14192;DHT22;7177;48.572;7.838;2023-11-18T11:20:42;7.60;99.90
14192;DHT22;7177;48.572;7.838;2023-11-18T11:29:00;7.50;99.90
14192;DHT22;7177;48.572;7.838;2023-11-18T11:31:37;7.50;99.90
14192;DHT22;7177;48.572;7.838;2023-11-18T11:36:43;7.50;99.90
14192;DHT22;7177;48.572;7.838;2023-11-18T11:39:12;7.50;99.90
14192;DHT22;7177;48.572;7.838;2023-11-18T11:42:01;7.40;99.90
14192;DHT22;7177;48.572;7.838;2023-11-18T11:44:27;7.30;99.90
14192;DHT22;7177;48.572;7.838;2023-11-18T11:46:57;7.30;99.90
14192;DHT22;7177;48.572;7.838;2023-11-18T11:49:26;7.30;99.90
14192;DHT22;7177;48.572;7.838;2023-11-18T11:54:43;7.30;99.90
14192;DHT22;7177;48.572;7.838;2023-11-18T11:57:10;7.40;99.90
14192;DHT22;7177;48.572;7.838;2023-11-18T12:02:13;7.40;99.90
14192;DHT22;7177;48.572;7.838;2023-11-18T12:04:51;7.40;99.90
14192;DHT22;7177;48.572;7.838;2023-11-18T12:07:20;7.40;99.90
14192;DHT22;7177;48.572;7.838;2023-11-18T12:09:51;7.40;99.90
14192;DHT22;7177;48.572;7.838;2023-11-18T12:12:24;7.40;99.90
14192;DHT22;7177;48.572;7.838;2023-11-18T12:14:54;7.50;99.90
14192;DHT22;7177;48.572;7.838;2023-11-18T12:23:08;7.60;99.90
14192;DHT22;7177;48.572;7.838;2023-11-18T12:25:46;7.60;99.90
14192;DHT22;7177;48.572;7.838;2023-11-18T12:28:17;7.70;99.90
14192;DHT22;7177;48.572;7.838;2023-11-18T12:30:47;7.70;99.90
14192;DHT22;7177;48.572;7.838;2023-11-18T12:33:23;7.70;99.90
14192;DHT22;7177;48.572;7.838;2023-11-18T12:40:57;7.70;99.90
14192;DHT22;7177;48.572;7.838;2023-11-18T12:43:49;7.70;99.90
14192;DHT22;7177;48.572;7.838;2023-11-18T12:46:51;7.70;99.90
14192;DHT22;7177;48.572;7.838;2023-11-18T12:49:22;7.70;99.90
14192;DHT22;7177;48.572;7.838;2023-11-18T12:51:52;7.70;99.90
14192;DHT22;7177;48.572;7.838;2023-11-18T12:54:19;7.70;99.90
14192;DHT22;7177;48.572;7.838;2023-11-18T12:56:46;7.80;99.90
14192;DHT22;7177;48.572;7.838;2023-11-18T12:59:17;7.80;99.90
14192;DHT22;7177;48.572;7.838;2023-11-18T13:01:49;7.80;99.90
14192;DHT22;7177;48.572;7.838;2023-11-18T13:04:24;7.80;99.90
14192;DHT22;7177;48.572;7.838;2023-11-18T13:06:50;7.80;99.90
14192;DHT22;7177;48.572;7.838;2023-11-18T13:09:17;7.80;99.90
14192;DHT22;7177;48.572;7.838;2023-11-18T13:11:55;7.80;99.90
14192;DHT22;7177;48.572;7.838;2023-11-18T13:14:23;7.80;99.90
14192;DHT22;7177;48.572;7.838;2023-11-18T13:16:53;7.80;99.90
14192;DHT22;7177;48.572;7.838;2023-11-18T13:19:26;7.80;99.90
14192;DHT22;7177;48.572;7.838;2023-11-18T13:21:57;8.00;99.90
14192;DHT22;7177;48.572;7.838;2023-11-18T13:24:22;7.90;99.90
14192;DHT22;7177;48.572;7.838;2023-11-18T13:26:48;7.90;99.90
14192;DHT22;7177;48.572;7.838;2023-11-18T13:29:14;7.90;99.90
14192;DHT22;7177;48.572;7.838;2023-11-18T13:31:39;7.90;99.90
14192;DHT22;7177;48.572;7.838;2023-11-18T13:34:06;7.90;99.90
14192;DHT22;7177;48.572;7.838;2023-11-18T13:36:32;7.90;99.90
14192;DHT22;7177;48.572;7.838;2023-11-18T13:38:58;7.90;99.90
14192;DHT22;7177;48.572;7.838;2023-11-18T13:41:30;7.90;99.90
14192;DHT22;7177;48.572;7.838;2023-11-18T13:43:59;7.90;99.90
14192;DHT22;7177;48.572;7.838;2023-11-18T13:46:26;7.90;99.90
14192;DHT22;7177;48.572;7.838;2023-11-18T13:48:54;7.90;99.90
14192;DHT22;7177;48.572;7.838;2023-11-18T13:51:20;7.90;99.90
14192;DHT22;7177;48.572;7.838;2023-11-18T13:53:47;7.90;99.90
14192;DHT22;7177;48.572;7.838;2023-11-18T13:56:13;7.90;99.90
14192;DHT22;7177;48.572;7.838;2023-11-18T13:58:42;8.00;99.90
14192;DHT22;7177;48.572;7.838;2023-11-18T14:01:08;8.00;99.90
14192;DHT22;7177;48.572;7.838;2023-11-18T14:03:36;8.10;99.90
14192;DHT22;7177;48.572;7.838;2023-11-18T14:06:08;8.10;99.90
14192;DHT22;7177;48.572;7.838;2023-11-18T14:08:36;8.00;99.90
14192;DHT22;7177;48.572;7.838;2023-11-18T14:11:02;8.00;99.90
14192;DHT22;7177;48.572;7.838;2023-11-18T14:13:30;8.00;99.90
14192;DHT22;7177;48.572;7.838;2023-11-18T14:15:57;8.00;99.90
14192;DHT22;7177;48.572;7.838;2023-11-18T14:18:23;8.10;99.90
14192;DHT22;7177;48.572;7.838;2023-11-18T14:20:49;8.10;99.90
14192;DHT22;7177;48.572;7.838;2023-11-18T14:23:15;8.10;99.90
14192;DHT22;7177;48.572;7.838;2023-11-18T14:25:41;8.10;99.90
14192;DHT22;7177;48.572;7.838;2023-11-18T14:28:07;8.20;99.90
14192;DHT22;7177;48.572;7.838;2023-11-18T14:30:35;8.20;99.90
14192;DHT22;7177;48.572;7.838;2023-11-18T14:33:01;8.20;99.90
14192;DHT22;7177;48.572;7.838;2023-11-18T14:35:26;8.20;99.90
14192;DHT22;7177;48.572;7.838;2023-11-18T14:37:52;8.30;99.90
14192;DHT22;7177;48.572;7.838;2023-11-18T14:40:18;8.20;99.90
14192;DHT22;7177;48.572;7.838;2023-11-18T14:42:45;8.20;99.90
14192;DHT22;7177;48.572;7.838;2023-11-18T14:45:15;8.20;99.90
14192;DHT22;7177;48.572;7.838;2023-11-18T14:47:42;8.20;99.90
14192;DHT22;7177;48.572;7.838;2023-11-18T14:50:13;8.20;99.90
14192;DHT22;7177;48.572;7.838;2023-11-18T14:52:44;8.20;99.90
14192;DHT22;7177;48.572;7.838;2023-11-18T14:55:10;8.20;99.90
14192;DHT22;7177;48.572;7.838;2023-11-18T14:57:40;8.20;99.90
14192;DHT22;7177;48.572;7.838;2023-11-18T15:00:07;8.20;99.90
14192;DHT22;7177;48.572;7.838;2023-11-18T15:02:34;8.20;99.90
14192;DHT22;7177;48.572;7.838;2023-11-18T15:05:00;8.20;99.90
14192;DHT22;7177;48.572;7.838;2023-11-18T15:07:28;8.20;99.90
14192;DHT22;7177;48.572;7.838;2023-11-18T15:09:54;8.20;99.90
14192;DHT22;7177;48.572;7.838;2023-11-18T15:12:19;8.20;99.90
14192;DHT22;7177;48.572;7.838;2023-11-18T15:14:45;8.20;99.90
14192;DHT22;7177;48.572;7.838;2023-11-18T15:17:11;8.20;99.90
14192;DHT22;7177;48.572;7.838;2023-11-18T15:19:39;8.20;99.90
14192;DHT22;7177;48.572;7.838;2023-11-18T15:22:04;8.20;99.90
14192;DHT22;7177;48.572;7.838;2023-11-18T15:24:30;8.20;99.90
14192;DHT22;7177;48.572;7.838;2023-11-18T15:26:57;8.20;99.90
14192;DHT22;7177;48.572;7.838;2023-11-18T15:29:25;8.20;99.90
14192;DHT22;7177;48.572;7.838;2023-11-18T15:31:58;8.20;99.90
14192;DHT22;7177;48.572;7.838;2023-11-18T15:34:24;8.20;99.90
14192;DHT22;7177;48.572;7.838;2023-11-18T15:36:50;8.10;99.90
14192;DHT22;7177;48.572;7.838;2023-11-18T15:39:17;8.10;99.90
14192;DHT22;7177;48.572;7.838;2023-11-18T15:41:42;8.10;99.90
14192;DHT22;7177;48.572;7.838;2023-11-18T15:44:08;8.10;99.90
14192;DHT22;7177;48.572;7.838;2023-11-18T15:46:34;8.10;99.90
14192;DHT22;7177;48.572;7.838;2023-11-18T15:49:03;8.10;99.90
14192;DHT22;7177;48.572;7.838;2023-11-18T15:51:28;8.10;99.90
14192;DHT22;7177;48.572;7.838;2023-11-18T15:53:56;8.10;99.90
14192;DHT22;7177;48.572;7.838;2023-11-18T15:56:22;8.10;99.90
14192;DHT22;7177;48.572;7.838;2023-11-18T15:58:48;8.00;99.90
14192;DHT22;7177;48.572;7.838;2023-11-18T16:01:13;8.10;99.90
14192;DHT22;7177;48.572;7.838;2023-11-18T16:03:39;8.00;99.90
14192;DHT22;7177;48.572;7.838;2023-11-18T16:06:05;8.00;99.90
14192;DHT22;7177;48.572;7.838;2023-11-18T16:08:31;8.00;99.90
14192;DHT22;7177;48.572;7.838;2023-11-18T16:10:56;8.00;99.90
14192;DHT22;7177;48.572;7.838;2023-11-18T16:13:22;8.00;99.90
14192;DHT22;7177;48.572;7.838;2023-11-18T16:15:47;8.00;99.90
14192;DHT22;7177;48.572;7.838;2023-11-18T16:18:13;8.00;99.90
14192;DHT22;7177;48.572;7.838;2023-11-18T16:20:38;8.00;99.90
14192;DHT22;7177;48.572;7.838;2023-11-18T16:23:05;8.00;99.90
14192;DHT22;7177;48.572;7.838;2023-11-18T16:25:31;7.90;99.90
14192;DHT22;7177;48.572;7.838;2023-11-18T16:27:58;7.90;99.90
14192;DHT22;7177;48.572;7.838;2023-11-18T16:30:25;7.90;99.90
14192;DHT22;7177;48.572;7.838;2023-11-18T16:32:55;7.90;99.90
14192;DHT22;7177;48.572;7.838;2023-11-18T16:35:22;7.90;99.90
14192;DHT22;7177;48.572;7.838;2023-11-18T16:37:48;7.90;99.90
14192;DHT22;7177;48.572;7.838;2023-11-18T16:42:46;7.90;99.90
14192;DHT22;7177;48.572;7.838;2023-11-18T16:45:13;7.90;99.90
14192;DHT22;7177;48.572;7.838;2023-11-18T16:47:39;7.90;99.90
14192;DHT22;7177;48.572;7.838;2023-11-18T16:50:09;7.90;99.90
14192;DHT22;7177;48.572;7.838;2023-11-18T16:52:39;7.90;99.90
14192;DHT22;7177;48.572;7.838;2023-11-18T16:55:06;7.90;99.90